Time;durP1;ratioP1;P1;durP2;ratioP2;P2;SDS_P1;SDS_P2;PMS_P1;PMS_P2;Temp;Humidity;BMP_temperature;BMP_pressure;BME280_temperature;BME280_humidity;BME280_pressure;Samples;Min_cycle;Max_cycle;Signal;HPM_P1;HPM_P2
2022/02/22 00:00:53;;;;;;;4.67;1.63;;;5.50;99.90;;;6.00;100.00;98057.69;5036540;28;20452;-77
2022/02/22 00:03:24;;;;;;;4.10;1.20;;;5.50;99.90;;;5.95;100.00;98067.72;5042377;28;20961;-77
2022/02/22 00:05:54;;;;;;;4.53;1.40;;;5.40;99.90;;;5.92;100.00;98053.28;5035139;28;20461;-77
2022/02/22 00:08:23;;;;;;;10.83;2.13;;;5.40;99.90;;;5.93;100.00;98067.88;5036617;28;20567;-78
2022/02/22 00:11:00;;;;;;;12.47;1.70;;;5.40;99.90;;;5.93;100.00;98072.25;5033403;28;20551;-77
2022/02/22 00:13:29;;;;;;;7.33;1.73;;;5.40;99.90;;;5.88;100.00;98072.72;5032162;28;20598;-77
2022/02/22 00:16:00;;;;;;;6.40;1.50;;;5.40;99.90;;;5.85;100.00;98074.78;5031741;28;20477;-78
2022/02/22 00:18:31;;;;;;;2.60;1.77;;;5.30;99.90;;;5.84;100.00;98083.53;5031280;28;20477;-77
2022/02/22 00:21:02;;;;;;;6.60;1.83;;;5.30;99.90;;;5.88;100.00;98090.06;5031735;28;20508;-77
2022/02/22 00:23:31;;;;;;;14.10;2.17;;;5.30;99.90;;;5.88;100.00;98090.06;5032515;28;20835;-77
2022/02/22 00:26:00;;;;;;;6.17;1.97;;;5.40;99.90;;;5.87;100.00;98104.00;5030433;28;20479;-78
2022/02/22 00:28:30;;;;;;;7.17;1.97;;;5.30;99.90;;;5.85;100.00;98111.94;5031540;28;20500;-77
2022/02/22 00:31:01;;;;;;;5.13;2.03;;;5.40;99.90;;;5.90;100.00;98117.47;5032533;28;20952;-77
2022/02/22 00:33:33;;;;;;;9.27;2.17;;;5.40;99.90;;;5.86;100.00;98111.00;5032312;28;20466;-77
2022/02/22 00:36:02;;;;;;;11.60;2.10;;;5.40;99.90;;;5.84;100.00;98125.03;5032344;28;20583;-77
2022/02/22 00:38:32;;;;;;;7.40;1.60;;;5.40;99.90;;;5.87;100.00;98133.34;5032473;28;20552;-77
2022/02/22 00:41:02;;;;;;;7.23;1.70;;;5.40;99.90;;;5.91;100.00;98142.47;5032574;28;20465;-77
2022/02/22 00:43:33;;;;;;;7.60;1.97;;;5.40;99.90;;;5.92;100.00;98132.91;5031666;28;20739;-77
2022/02/22 00:46:03;;;;;;;12.97;3.13;;;5.40;99.90;;;5.92;100.00;98143.28;5033753;28;20520;-77
2022/02/22 00:48:34;;;;;;;7.73;1.70;;;5.30;99.90;;;5.95;100.00;98158.53;5034161;28;20447;-77
2022/02/22 00:51:04;;;;;;;2.43;1.67;;;5.20;99.90;;;5.94;100.00;98164.69;5035823;28;20445;-77
2022/02/22 00:53:33;;;;;;;9.57;2.77;;;5.20;99.90;;;5.94;100.00;98173.28;5035249;28;21035;-77
2022/02/22 00:56:02;;;;;;;7.37;2.07;;;5.20;99.90;;;5.96;100.00;98173.16;5035128;28;20460;-78
2022/02/22 00:58:31;;;;;;;10.53;2.50;;;5.30;99.90;;;5.95;100.00;98168.91;5031488;28;20520;-78
2022/02/22 01:01:01;;;;;;;12.30;2.17;;;5.50;99.90;;;5.91;100.00;98183.97;5035102;28;20464;-77
2022/02/22 01:03:32;;;;;;;9.30;2.17;;;5.40;99.90;;;5.94;100.00;98195.84;5032117;28;20873;-77
2022/02/22 01:06:02;;;;;;;10.80;2.80;;;5.40;99.90;;;5.94;100.00;98190.63;5035588;28;20449;-78
2022/02/22 01:08:32;;;;;;;12.90;2.23;;;5.40;99.90;;;5.97;100.00;98188.56;5035912;28;20445;-77
2022/02/22 01:11:01;;;;;;;8.13;1.53;;;5.40;99.90;;;6.01;100.00;98195.06;5035004;28;20462;-77
2022/02/22 01:13:31;;;;;;;6.33;2.10;;;5.50;99.90;;;6.02;100.00;98201.06;5035545;28;20590;-77
2022/02/22 01:16:01;;;;;;;10.43;1.97;;;5.60;99.90;;;5.99;100.00;98201.38;5036004;28;20855;-77
2022/02/22 01:18:32;;;;;;;9.73;1.73;;;5.50;99.90;;;5.99;100.00;98207.41;5031993;28;20870;-77
2022/02/22 01:21:02;;;;;;;8.13;1.93;;;5.50;99.90;;;5.99;100.00;98210.00;5036053;28;20558;-78
2022/02/22 01:23:31;;;;;;;5.47;2.03;;;5.50;99.90;;;6.02;100.00;98221.84;5036133;28;20457;-77
2022/02/22 01:26:03;;;;;;;8.73;2.23;;;5.40;99.90;;;6.04;100.00;98219.88;5035258;28;20459;-78
2022/02/22 01:28:34;;;;;;;5.90;1.90;;;5.50;99.90;;;6.05;100.00;98224.13;5036313;28;20453;-77
2022/02/22 01:31:05;;;;;;;9.70;2.00;;;5.60;99.90;;;6.06;100.00;98218.78;5034737;28;20490;-78
2022/02/22 01:33:35;;;;;;;8.47;1.63;;;5.40;99.90;;;6.06;100.00;98239.56;5036341;28;20507;-77
2022/02/22 01:36:07;;;;;;;6.10;1.90;;;5.50;99.90;;;6.06;100.00;98238.72;5035577;28;20472;-77
2022/02/22 01:38:37;;;;;;;6.27;1.93;;;5.50;99.90;;;6.02;100.00;98247.78;5038808;28;20456;-77
2022/02/22 01:41:07;;;;;;;6.53;1.70;;;5.50;99.90;;;6.03;100.00;98259.81;5039493;28;20597;-78
2022/02/22 01:43:40;;;;;;;8.77;2.10;;;5.40;99.90;;;6.10;100.00;98266.03;5038951;28;21368;-77
2022/02/22 01:46:11;;;;;;;8.47;2.50;;;5.50;99.90;;;6.11;100.00;98262.44;5039256;28;20937;-77
2022/02/22 01:48:42;;;;;;;10.17;2.23;;;5.50;99.90;;;6.12;100.00;98252.88;5039561;28;20505;-77
2022/02/22 01:51:12;;;;;;;5.47;1.87;;;5.50;99.90;;;6.13;100.00;98260.50;5039756;28;21293;-77
2022/02/22 01:53:41;;;;;;;6.03;1.53;;;5.60;99.90;;;6.08;100.00;98267.94;5040031;28;20445;-77
2022/02/22 01:56:15;;;;;;;14.10;2.40;;;5.50;99.90;;;6.09;100.00;98256.59;5038752;28;20453;-78
2022/02/22 01:58:45;;;;;;;3.80;1.70;;;5.50;99.90;;;6.12;100.00;98253.69;5039583;28;20845;-77
2022/02/22 02:01:15;;;;;;;11.37;2.47;;;5.50;99.90;;;6.14;100.00;98256.97;5036405;28;20488;-77
2022/02/22 02:03:49;;;;;;;13.53;2.77;;;5.50;99.90;;;6.16;100.00;98267.19;5034002;28;21202;-77
2022/02/22 02:06:20;;;;;;;8.60;2.60;;;5.60;99.90;;;6.16;100.00;98268.00;5035280;28;20460;-77
2022/02/22 02:08:49;;;;;;;12.20;2.60;;;5.60;99.90;;;6.15;100.00;98276.75;5034499;28;20442;-77
2022/02/22 02:11:19;;;;;;;5.70;1.90;;;5.60;99.90;;;6.19;100.00;98259.91;5034038;28;21241;-77
2022/02/22 02:13:50;;;;;;;7.07;1.47;;;5.70;99.90;;;6.17;100.00;98282.63;5035716;28;20830;-77
2022/02/22 02:16:20;;;;;;;11.50;2.80;;;5.60;99.90;;;6.14;100.00;98287.28;5034148;28;20810;-77
2022/02/22 02:18:52;;;;;;;10.57;2.80;;;5.60;99.90;;;6.13;100.00;98283.88;5034617;28;20481;-78
2022/02/22 02:21:22;;;;;;;9.30;2.13;;;5.60;99.90;;;6.11;100.00;98283.19;5033630;28;20887;-77
2022/02/22 02:23:53;;;;;;;12.17;2.50;;;5.60;99.90;;;6.09;100.00;98300.72;5035349;28;20448;-77
2022/02/22 02:26:25;;;;;;;8.63;1.90;;;5.60;99.90;;;6.08;100.00;98297.31;5033847;28;20581;-78
2022/02/22 02:28:54;;;;;;;11.00;2.57;;;5.60;99.90;;;6.08;100.00;98289.53;5036229;28;20464;-77
2022/02/22 02:31:24;;;;;;;16.90;2.10;;;5.60;99.90;;;6.09;100.00;98295.53;5037575;28;20461;-78
2022/02/22 02:33:55;;;;;;;28.87;2.90;;;5.60;99.90;;;6.08;100.00;98314.66;5038118;28;20457;-77
2022/02/22 02:36:26;;;;;;;10.03;1.90;;;5.60;99.90;;;6.05;100.00;98318.38;5036875;28;20452;-77
2022/02/22 02:39:03;;;;;;;7.17;1.90;;;5.60;99.90;;;6.07;100.00;98303.47;5037094;28;20552;-77
2022/02/22 02:41:33;;;;;;;8.43;2.13;;;5.50;99.90;;;6.10;100.00;98306.72;5037073;28;20849;-77
2022/02/22 02:44:04;;;;;;;8.00;1.97;;;5.50;99.90;;;6.12;100.00;98308.19;5037926;28;20465;-78
2022/02/22 02:46:34;;;;;;;6.00;1.83;;;5.50;99.90;;;6.05;100.00;98313.19;5037223;28;20445;-77
2022/02/22 02:49:05;;;;;;;5.73;1.90;;;5.60;99.90;;;6.01;100.00;98318.81;5032901;28;20500;-77
2022/02/22 02:51:36;;;;;;;8.63;2.10;;;5.50;99.90;;;5.97;100.00;98313.13;5037719;28;20465;-77
2022/02/22 02:54:08;;;;;;;5.43;2.17;;;5.40;99.90;;;5.94;100.00;98312.59;5037649;28;20461;-78
2022/02/22 02:56:38;;;;;;;10.10;2.20;;;5.40;99.90;;;5.91;100.00;98320.69;5036820;28;20454;-77
2022/02/22 02:59:12;;;;;;;9.60;2.13;;;5.40;99.90;;;5.92;100.00;98314.56;5034877;28;20870;-77
2022/02/22 03:01:43;;;;;;;4.73;1.80;;;5.40;99.90;;;5.92;100.00;98324.94;5038066;28;20497;-77
2022/02/22 03:04:13;;;;;;;7.73;1.70;;;5.40;99.90;;;5.91;100.00;98338.88;5037291;28;20461;-77
2022/02/22 03:06:44;;;;;;;12.40;2.60;;;5.40;99.90;;;5.93;100.00;98342.16;5038006;28;20552;-77
2022/02/22 03:09:16;;;;;;;4.60;2.27;;;5.30;99.90;;;5.95;100.00;98327.22;5037655;28;20504;-77
2022/02/22 03:11:47;;;;;;;16.70;2.10;;;5.30;99.90;;;5.92;100.00;98336.13;5035991;28;20596;-77
2022/02/22 03:14:16;;;;;;;5.50;1.77;;;5.30;99.90;;;5.89;100.00;98341.63;5035405;28;20446;-77
2022/02/22 03:16:46;;;;;;;10.47;1.67;;;5.30;99.90;;;5.84;100.00;98337.81;5037158;28;20515;-77
2022/02/22 03:19:20;;;;;;;8.10;2.50;;;5.30;99.90;;;5.81;100.00;98336.34;5036163;28;20456;-77
2022/02/22 03:21:51;;;;;;;8.53;1.63;;;5.30;99.90;;;5.78;100.00;98344.41;5033652;28;20503;-78
2022/02/22 03:24:22;;;;;;;13.43;2.30;;;5.20;99.90;;;5.72;100.00;98355.41;5035732;28;20457;-77
2022/02/22 03:26:52;;;;;;;9.00;1.87;;;5.00;99.90;;;5.71;100.00;98363.31;5036912;28;20528;-77
2022/02/22 03:29:21;;;;;;;17.33;3.30;;;5.10;99.90;;;5.59;100.00;98350.56;5036503;28;20539;-77
2022/02/22 03:31:51;;;;;;;8.80;2.07;;;5.10;99.90;;;5.56;100.00;98356.06;5034195;28;20485;-77
2022/02/22 03:34:21;;;;;;;12.20;1.90;;;5.00;99.90;;;5.53;100.00;98356.34;5032124;28;20997;-77
2022/02/22 03:36:52;;;;;;;9.67;2.87;;;5.00;99.90;;;5.51;100.00;98353.09;5035105;28;20537;-77
2022/02/22 03:39:23;;;;;;;10.00;2.60;;;4.90;99.90;;;5.47;100.00;98364.72;5036478;28;20827;-77
2022/02/22 03:41:53;;;;;;;12.93;2.30;;;5.00;99.90;;;5.45;100.00;98368.41;5035746;28;20571;-77
2022/02/22 03:44:24;;;;;;;5.83;1.60;;;4.90;99.90;;;5.43;100.00;98363.38;5033601;28;20534;-77
2022/02/22 03:46:54;;;;;;;8.30;1.90;;;4.80;99.90;;;5.45;100.00;98379.59;5032378;28;20615;-77
2022/02/22 03:49:25;;;;;;;9.67;2.50;;;4.80;99.90;;;5.43;100.00;98370.34;5033255;28;20522;-77
2022/02/22 03:51:55;;;;;;;7.77;2.10;;;4.90;99.90;;;5.40;100.00;98361.09;5032994;28;20461;-77
2022/02/22 03:54:26;;;;;;;14.37;2.33;;;4.90;99.90;;;5.42;100.00;98373.88;5032760;28;20444;-77
2022/02/22 03:56:56;;;;;;;8.87;2.57;;;4.80;99.90;;;5.45;100.00;98366.63;5032527;28;20448;-77
2022/02/22 03:59:26;;;;;;;12.63;2.07;;;4.80;99.90;;;5.43;100.00;98363.38;5030977;28;20444;-76
2022/02/22 04:01:55;;;;;;;10.23;2.37;;;4.80;99.90;;;5.45;100.00;98358.84;5032600;28;20533;-77
2022/02/22 04:04:25;;;;;;;10.33;2.37;;;4.80;99.90;;;5.44;100.00;98372.81;5030930;28;21006;-77
2022/02/22 04:06:56;;;;;;;16.73;2.10;;;4.90;99.90;;;5.39;100.00;98379.38;5033879;28;20461;-77
2022/02/22 04:09:27;;;;;;;6.87;2.40;;;4.90;99.90;;;5.37;100.00;98369.16;5032166;28;21014;-77
2022/02/22 04:11:58;;;;;;;7.20;2.10;;;4.90;99.90;;;5.29;100.00;98374.25;5033241;28;20485;-77
2022/02/22 04:14:28;;;;;;;11.70;1.90;;;4.70;99.90;;;5.30;100.00;98380.25;5034520;28;20452;-77
2022/02/22 04:16:58;;;;;;;18.00;3.47;;;4.70;99.90;;;5.31;100.00;98387.88;5036219;28;20539;-77
2022/02/22 04:19:26;;;;;;;6.00;2.10;;;4.70;99.90;;;5.29;100.00;98399.34;5034232;28;20514;-77
2022/02/22 04:21:56;;;;;;;17.57;2.40;;;4.70;99.90;;;5.27;100.00;98402.13;5036018;28;20991;-76
2022/02/22 04:24:28;;;;;;;7.30;1.70;;;4.70;99.90;;;5.22;100.00;98411.25;5036537;28;20991;-77
2022/02/22 04:26:57;;;;;;;9.77;1.90;;;4.60;99.90;;;5.22;100.00;98414.69;5033436;28;20487;-77
2022/02/22 04:29:28;;;;;;;5.27;2.00;;;4.60;99.90;;;5.22;100.00;98421.63;5036480;28;20473;-77
2022/02/22 04:32:01;;;;;;;14.83;2.73;;;4.70;99.90;;;5.26;100.00;98420.38;5032438;28;20456;-77
2022/02/22 04:34:31;;;;;;;7.43;2.30;;;4.60;99.90;;;5.24;100.00;98420.53;5031909;28;20462;-77
2022/02/22 04:37:01;;;;;;;8.00;2.03;;;4.60;99.90;;;5.23;100.00;98421.50;5033013;28;20450;-80
2022/02/22 04:39:31;;;;;;;8.20;2.50;;;4.60;99.90;;;5.20;100.00;98436.53;5028522;28;20950;-77
2022/02/22 04:42:00;;;;;;;14.23;2.23;;;4.60;99.90;;;5.14;100.00;98434.50;5031942;28;20536;-76
2022/02/22 04:44:31;;;;;;;8.70;2.00;;;4.60;99.90;;;5.13;100.00;98443.25;5032690;28;20492;-77
2022/02/22 04:47:01;;;;;;;11.87;2.90;;;4.50;99.90;;;5.14;100.00;98452.66;5029266;28;20826;-77
2022/02/22 04:49:32;;;;;;;25.80;4.77;;;4.60;99.90;;;5.12;100.00;98439.81;5030027;28;20452;-79
2022/02/22 04:52:03;;;;;;;8.07;3.00;;;4.50;99.90;;;5.11;100.00;98451.16;5030988;28;20551;-77
2022/02/22 04:54:34;;;;;;;9.27;2.20;;;4.60;99.90;;;5.08;100.00;98449.66;5033529;28;20492;-76
2022/02/22 04:57:05;;;;;;;14.13;2.80;;;4.50;99.90;;;5.08;100.00;98459.22;5033541;28;20449;-77
2022/02/22 04:59:35;;;;;;;12.23;2.67;;;4.50;99.90;;;5.13;100.00;98454.44;5035328;28;20975;-77
2022/02/22 05:02:05;;;;;;;13.53;2.13;;;4.50;99.90;;;5.14;100.00;98448.25;5033811;28;20496;-76
2022/02/22 05:04:36;;;;;;;12.17;2.90;;;4.40;99.90;;;5.12;100.00;98457.97;5032163;28;21053;-80
2022/02/22 05:07:08;;;;;;;17.03;6.90;;;4.50;99.90;;;5.13;100.00;98463.97;5032530;28;20475;-77
2022/02/22 05:09:38;;;;;;;10.17;2.40;;;4.40;99.90;;;5.13;100.00;98456.19;5033728;28;20552;-76
2022/02/22 05:12:10;;;;;;;11.33;3.07;;;4.40;99.90;;;5.08;100.00;98464.38;5034318;28;20520;-76
2022/02/22 05:14:39;;;;;;;6.03;1.77;;;4.40;99.90;;;5.06;100.00;98464.56;5035410;28;20537;-76
2022/02/22 05:17:09;;;;;;;11.90;2.30;;;4.50;99.90;;;5.06;100.00;98466.31;5035686;28;20902;-77
2022/02/22 05:19:40;;;;;;;13.40;2.30;;;4.40;99.90;;;5.10;100.00;98472.03;5033473;28;20457;-83
2022/02/22 05:22:09;;;;;;;41.33;12.23;;;4.40;99.90;;;5.05;100.00;98462.91;5035117;28;20490;-77
2022/02/22 05:24:42;;;;;;;5.73;2.20;;;4.40;99.90;;;5.05;100.00;98472.44;5034853;28;21306;-76
2022/02/22 05:27:11;;;;;;;18.40;2.30;;;4.30;99.90;;;5.03;100.00;98470.00;5033904;28;20786;-83
2022/02/22 05:29:40;;;;;;;15.80;2.93;;;4.30;99.90;;;4.97;100.00;98475.75;5032552;28;20535;-76
2022/02/22 05:32:10;;;;;;;13.53;2.60;;;4.40;99.90;;;4.94;100.00;98488.16;5031797;28;20916;-76
2022/02/22 05:34:41;;;;;;;10.70;2.60;;;4.20;99.90;;;4.89;100.00;98480.84;5030418;28;20486;-77
2022/02/22 05:37:11;;;;;;;7.40;2.33;;;4.30;99.90;;;4.85;100.00;98483.84;5032268;28;20732;-77
2022/02/22 05:39:43;;;;;;;15.48;2.58;;;4.30;99.90;;;4.85;100.00;98491.59;5033361;28;20827;-76
2022/02/22 05:42:13;;;;;;;9.20;2.40;;;4.20;99.90;;;4.82;100.00;98497.06;5032397;28;20223;-77
2022/02/22 05:44:44;;;;;;;12.97;3.03;;;4.10;99.90;;;4.79;100.00;98500.75;5032774;28;20816;-77
2022/02/22 05:47:15;;;;;;;7.30;2.57;;;4.00;99.90;;;4.77;100.00;98499.25;5032964;28;20474;-76
2022/02/22 05:49:46;;;;;;;8.13;2.57;;;4.00;99.90;;;4.75;100.00;98501.19;5033534;28;20986;-77
2022/02/22 05:52:17;;;;;;;5.90;2.17;;;3.90;99.90;;;4.67;100.00;98516.59;5034481;28;20484;-76
2022/02/22 05:54:47;;;;;;;8.03;2.40;;;3.90;99.90;;;4.63;100.00;98510.84;5036101;28;20463;-76
2022/02/22 05:57:17;;;;;;;11.20;2.03;;;3.90;99.90;;;4.64;100.00;98516.88;5034209;28;20456;-77
2022/02/22 05:59:46;;;;;;;10.60;3.00;;;4.00;99.90;;;4.61;100.00;98517.13;5034752;28;20453;-77
2022/02/22 06:02:16;;;;;;;8.00;1.97;;;3.90;99.90;;;4.54;100.00;98528.06;5034188;28;20494;-76
2022/02/22 06:04:46;;;;;;;20.90;2.30;;;3.90;99.90;;;4.42;100.00;98517.97;5033778;28;20455;-76
2022/02/22 06:07:20;;;;;;;10.50;1.90;;;3.70;99.90;;;4.50;100.00;98537.03;5035649;28;20447;-77
2022/02/22 06:09:51;;;;;;;8.17;1.87;;;3.80;99.90;;;4.51;100.00;98533.47;5035057;28;20458;-77
2022/02/22 06:12:20;;;;;;;15.30;2.73;;;3.90;99.90;;;4.51;100.00;98538.66;5037661;28;20473;-77
2022/02/22 06:14:50;;;;;;;20.00;3.47;;;3.90;99.90;;;4.49;100.00;98540.59;5033654;28;20604;-76
2022/02/22 06:17:21;;;;;;;4.40;1.90;;;3.90;99.90;;;4.46;100.00;98540.84;5038231;28;20459;-76
2022/02/22 06:19:51;;;;;;;9.67;2.73;;;3.80;99.90;;;4.46;100.00;98551.22;5035542;28;20440;-77
2022/02/22 06:22:22;;;;;;;7.87;1.93;;;3.70;99.90;;;4.46;100.00;98555.56;5038152;28;20562;-76
2022/02/22 06:24:55;;;;;;;9.60;2.03;;;3.80;99.90;;;4.42;100.00;98549.84;5037458;28;20448;-76
2022/02/22 06:27:24;;;;;;;8.47;2.90;;;3.80;99.90;;;4.39;100.00;98554.47;5041045;28;20444;-76
2022/02/22 06:29:55;;;;;;;5.93;2.40;;;3.70;99.90;;;4.30;100.00;98561.31;5041127;28;20986;-76
2022/02/22 06:32:24;;;;;;;8.87;2.70;;;3.70;99.90;;;4.31;100.00;98568.09;5040623;28;20458;-77
2022/02/22 06:34:54;;;;;;;9.87;1.60;;;3.70;99.90;;;4.28;100.00;98568.38;5039028;28;20852;-76
2022/02/22 06:37:27;;;;;;;12.43;2.17;;;3.70;99.90;;;4.26;100.00;98580.63;5041881;28;20450;-76
2022/02/22 06:39:59;;;;;;;16.53;3.07;;;3.70;99.90;;;4.25;100.00;98573.81;5041104;28;20464;-76
2022/02/22 06:42:29;;;;;;;9.83;1.63;;;3.60;99.90;;;4.27;100.00;98576.28;5037559;28;20480;-76
2022/02/22 06:44:59;;;;;;;3.10;1.60;;;3.60;99.90;;;4.24;100.00;98584.28;5040410;28;20450;-76
2022/02/22 06:47:29;;;;;;;7.17;2.10;;;3.50;99.90;;;4.18;100.00;98588.22;5041053;28;20562;-76
2022/02/22 06:49:59;;;;;;;7.77;2.30;;;3.50;99.90;;;4.19;100.00;98597.66;5041349;28;20438;-76
2022/02/22 06:52:33;;;;;;;10.10;2.73;;;3.50;99.90;;;4.18;100.00;98598.59;5040900;28;20461;-76
2022/02/22 06:55:06;;;;;;;10.70;2.20;;;3.40;99.90;;;4.21;100.00;98593.13;5041180;28;21149;-76
2022/02/22 06:57:36;;;;;;;13.40;2.17;;;3.50;99.90;;;4.24;100.00;98597.22;5040844;28;20465;-77
2022/02/22 07:00:10;;;;;;;5.43;2.40;;;3.60;99.90;;;4.27;100.00;98602.94;5037575;28;20445;-76
2022/02/22 07:02:42;;;;;;;4.80;2.03;;;3.60;99.90;;;4.29;100.00;98605.41;5040888;28;21264;-76
2022/02/22 07:05:11;;;;;;;13.63;2.93;;;3.60;99.90;;;4.31;100.00;98599.16;5041104;28;20502;-76
2022/02/22 07:07:49;;;;;;;10.07;4.20;;;3.70;99.90;;;4.33;100.00;98605.03;5040272;28;20438;-76
2022/02/22 07:10:20;;;;;;;10.50;3.47;;;3.70;99.90;;;4.37;100.00;98614.13;5040887;28;20478;-76
2022/02/22 07:12:50;;;;;;;10.30;2.70;;;3.80;99.90;;;4.39;100.00;98612.25;5040496;28;20461;-76
2022/02/22 07:15:20;;;;;;;3.73;2.43;;;3.80;99.90;;;4.44;100.00;98609.28;5040419;28;20851;-77
2022/02/22 07:17:53;;;;;;;9.37;2.10;;;3.80;99.90;;;4.47;100.00;98615.00;5041035;28;20453;-76
2022/02/22 07:20:26;;;;;;;9.17;2.73;;;3.90;99.90;;;4.52;100.00;98623.16;5039718;28;20959;-76
2022/02/22 07:22:56;;;;;;;13.13;2.63;;;3.80;99.90;;;4.55;100.00;98625.47;5039848;28;20999;-77
2022/02/22 07:25:29;;;;;;;8.07;1.97;;;3.90;99.90;;;4.61;100.00;98625.91;5036881;28;20500;-76
2022/02/22 07:28:01;;;;;;;6.57;2.47;;;3.90;99.90;;;4.61;100.00;98616.38;5036174;28;20804;-76
2022/02/22 07:30:39;;;;;;;7.27;3.27;;;4.00;99.90;;;4.66;100.00;98628.91;5037260;28;20451;-77
2022/02/22 07:33:11;;;;;;;12.63;2.57;;;4.10;99.90;;;4.66;100.00;98623.72;5036810;28;20448;-77
2022/02/22 07:35:42;;;;;;;3.20;2.03;;;4.10;99.90;;;4.70;100.00;98628.50;5037314;28;20483;-76
2022/02/22 07:38:11;;;;;;;12.30;2.13;;;4.00;99.90;;;4.74;100.00;98636.81;5037777;28;20458;-76
2022/02/22 07:40:41;;;;;;;8.00;2.30;;;4.00;99.90;;;4.78;100.00;98639.00;5037868;28;20464;-77
2022/02/22 07:43:10;;;;;;;9.87;3.00;;;4.10;99.90;;;4.82;100.00;98642.16;5035960;28;20521;-76
2022/02/22 07:45:42;;;;;;;13.90;2.90;;;4.10;99.90;;;4.87;100.00;98650.31;5036826;28;20456;-77
2022/02/22 07:48:13;;;;;;;11.93;3.17;;;4.30;99.90;;;4.90;100.00;98647.44;5033834;28;20439;-77
2022/02/22 07:50:50;;;;;;;6.90;2.40;;;4.30;99.90;;;4.94;100.00;98643.63;5036283;28;20454;-77
2022/02/22 07:53:21;;;;;;;14.20;3.20;;;4.40;99.90;;;5.00;100.00;98648.25;5037174;28;20554;-77
2022/02/22 07:55:52;;;;;;;8.93;2.50;;;4.40;99.90;;;5.05;100.00;98646.91;5034568;28;20459;-76
2022/02/22 07:58:21;;;;;;;6.87;2.10;;;4.50;99.90;;;5.12;100.00;98654.94;5035668;28;20468;-76
2022/02/22 08:00:52;;;;;;;9.77;2.23;;;4.50;99.90;;;5.18;100.00;98651.81;5038368;28;20483;-77
2022/02/22 08:03:22;;;;;;;5.70;2.10;;;4.60;99.90;;;5.24;100.00;98650.44;5035066;28;20501;-77
2022/02/22 08:05:52;;;;;;;7.70;2.17;;;4.60;99.90;;;5.29;100.00;98656.84;5037120;28;20463;-77
2022/02/22 08:08:22;;;;;;;9.03;3.07;;;4.60;99.90;;;5.37;100.00;98667.34;5036243;28;20503;-77
2022/02/22 08:10:53;;;;;;;11.60;2.77;;;4.80;99.90;;;5.41;100.00;98668.72;5040010;28;20472;-76
2022/02/22 08:13:23;;;;;;;12.63;3.50;;;4.80;99.90;;;5.47;100.00;98662.97;5039547;28;20448;-76
2022/02/22 08:15:54;;;;;;;12.70;2.90;;;4.90;99.90;;;5.53;100.00;98662.38;5038528;28;20488;-77
2022/02/22 08:18:23;;;;;;;6.07;2.17;;;4.90;99.90;;;5.59;100.00;98666.19;5038569;28;20457;-77
2022/02/22 08:20:53;;;;;;;4.00;2.10;;;5.00;99.90;;;5.68;100.00;98660.19;5039235;28;20446;-76
2022/02/22 08:23:25;;;;;;;9.83;2.40;;;5.20;99.90;;;5.74;100.00;98664.78;5036358;28;20492;-77
2022/02/22 08:25:55;;;;;;;8.00;2.50;;;5.20;99.90;;;5.82;100.00;98666.69;5038185;28;20536;-77
2022/02/22 08:28:24;;;;;;;4.40;2.20;;;5.20;99.90;;;5.89;100.00;98658.22;5039743;28;20472;-76
2022/02/22 08:30:58;;;;;;;6.97;2.50;;;5.30;99.90;;;5.95;100.00;98654.22;5038863;28;20892;-77
2022/02/22 08:33:28;;;;;;;7.20;2.80;;;5.40;99.90;;;6.02;100.00;98655.31;5038873;28;20453;-77
2022/02/22 08:35:58;;;;;;;7.20;1.83;;;5.50;99.90;;;6.10;100.00;98658.00;5038668;28;20445;-77
2022/02/22 08:38:28;;;;;;;7.57;2.40;;;5.50;99.90;;;6.12;100.00;98663.03;5038314;28;20456;-77
2022/02/22 08:41:04;;;;;;;5.87;2.50;;;5.60;99.90;;;6.13;100.00;98647.34;5039153;28;20453;-77
2022/02/22 08:43:34;;;;;;;6.07;2.10;;;5.60;99.90;;;6.17;100.00;98653.06;5038911;28;20497;-77
2022/02/22 08:46:07;;;;;;;12.20;2.77;;;5.60;99.90;;;6.22;100.00;98656.84;5036183;28;20908;-77
2022/02/22 08:48:37;;;;;;;7.57;2.90;;;5.60;99.90;;;6.27;100.00;98659.00;5037959;28;20541;-77
2022/02/22 08:51:08;;;;;;;5.87;1.97;;;5.70;99.90;;;6.31;100.00;98644.78;5038176;28;20450;-77
2022/02/22 08:53:39;;;;;;;8.70;2.60;;;5.80;99.90;;;6.32;100.00;98649.81;5038169;28;20450;-77
2022/02/22 08:56:10;;;;;;;6.77;2.40;;;5.90;99.90;;;6.34;100.00;98642.72;5038990;28;20861;-77
2022/02/22 08:58:40;;;;;;;7.77;2.73;;;5.90;99.90;;;6.36;100.00;98645.97;5035467;28;20465;-77
2022/02/22 09:01:12;;;;;;;9.40;2.70;;;5.80;99.90;;;6.39;100.00;98642.25;5038014;28;20508;-77
2022/02/22 09:03:42;;;;;;;7.33;2.30;;;5.90;99.90;;;6.41;100.00;98629.97;5039514;28;20501;-77
2022/02/22 09:06:11;;;;;;;7.90;2.70;;;6.00;99.90;;;6.42;100.00;98634.19;5038088;28;20459;-77
2022/02/22 09:08:43;;;;;;;6.00;2.70;;;6.00;99.90;;;6.46;100.00;98625.94;5034432;28;20525;-77
2022/02/22 09:11:13;;;;;;;14.00;3.30;;;6.00;99.90;;;6.41;100.00;98623.00;5037261;28;20469;-77
2022/02/22 09:13:45;;;;;;;10.00;2.50;;;5.90;99.90;;;6.45;100.00;98626.94;5038882;28;20454;-77
2022/02/22 09:16:17;;;;;;;4.33;1.77;;;6.00;99.90;;;6.45;100.00;98637.31;5037123;28;20493;-77
2022/02/22 09:18:53;;;;;;;10.60;3.07;;;5.90;99.90;;;6.45;100.00;98633.91;5038613;28;20460;-76
2022/02/22 09:21:23;;;;;;;7.30;2.20;;;6.00;99.90;;;6.43;100.00;98628.84;5038365;28;20449;-77
2022/02/22 09:23:55;;;;;;;11.07;2.73;;;5.80;99.90;;;6.43;100.00;98631.44;5037236;28;20528;-77
2022/02/22 09:26:25;;;;;;;7.20;2.83;;;5.80;99.90;;;6.46;100.00;98628.53;5035972;28;20452;-76
2022/02/22 09:28:56;;;;;;;6.60;2.50;;;5.80;99.90;;;6.49;100.00;98633.44;5034866;28;20954;-76
2022/02/22 09:31:28;;;;;;;10.47;2.50;;;5.90;99.90;;;6.51;100.00;98638.50;5032788;28;20452;-77
2022/02/22 09:33:58;;;;;;;7.97;2.47;;;6.00;99.90;;;6.58;100.00;98634.34;5034635;28;20482;-77
2022/02/22 09:36:28;;;;;;;6.47;2.80;;;6.00;99.90;;;6.58;100.00;98637.78;5034335;28;20884;-77
2022/02/22 09:38:58;;;;;;;17.07;2.93;;;6.00;99.90;;;6.62;100.00;98634.88;5034503;28;20533;-77
2022/02/22 09:41:29;;;;;;;7.07;3.27;;;6.10;99.90;;;6.62;100.00;98634.88;5033693;28;20525;-76
2022/02/22 09:43:58;;;;;;;10.77;3.37;;;6.10;99.90;;;6.62;100.00;98637.47;5033824;28;20572;-76
2022/02/22 09:46:31;;;;;;;16.77;2.40;;;6.10;99.90;;;6.62;100.00;98624.50;5035113;28;20612;-77
2022/02/22 09:49:01;;;;;;;8.43;2.10;;;6.10;99.90;;;6.64;100.00;98614.75;5033590;28;20484;-77
2022/02/22 09:51:30;;;;;;;11.53;2.43;;;6.20;99.90;;;6.66;100.00;98621.44;5034854;28;20453;-77
2022/02/22 09:54:01;;;;;;;26.87;3.17;;;6.20;99.90;;;6.71;100.00;98621.81;5036736;28;20882;-77
2022/02/22 09:56:30;;;;;;;4.67;2.67;;;6.20;99.90;;;6.76;100.00;98621.38;5037513;28;20486;-77
2022/02/22 09:59:00;;;;;;;13.50;3.77;;;6.20;99.90;;;6.79;100.00;98634.88;5041065;28;20468;-77
2022/02/22 10:01:41;;;;;;;11.57;2.27;;;6.20;99.90;;;6.81;100.00;98622.56;5039376;28;20543;-77
2022/02/22 10:04:11;;;;;;;22.50;3.50;;;6.30;99.90;;;6.81;100.00;98624.31;5040362;28;20594;-77
2022/02/22 10:06:42;;;;;;;10.67;2.70;;;6.30;99.90;;;6.83;100.00;98606.81;5041552;28;20805;-76
2022/02/22 10:09:11;;;;;;;7.43;3.13;;;6.30;99.90;;;6.86;100.00;98606.53;5042567;28;20452;-77
2022/02/22 10:12:09;;;;;;;10.70;2.73;;;6.40;99.90;;;6.88;100.00;98596.78;5041786;28;21068;-77
2022/02/22 10:14:38;;;;;;;10.10;2.90;;;6.40;99.90;;;6.96;100.00;98594.25;5041439;28;20989;-77
2022/02/22 10:17:17;;;;;;;5.17;2.40;;;6.40;99.90;;;7.01;100.00;98600.63;5041355;28;20452;-77
2022/02/22 10:20:01;;;;;;;12.47;3.23;;;6.50;99.90;;;7.06;100.00;98592.38;5041603;28;20964;-77
2022/02/22 10:22:30;;;;;;;11.70;2.93;;;6.60;99.90;;;7.07;100.00;98594.00;5041230;28;20958;-77
2022/02/22 10:25:08;;;;;;;16.50;3.40;;;6.60;99.90;;;7.08;100.00;98591.25;5037944;28;20599;-77
2022/02/22 10:27:47;;;;;;;4.70;2.30;;;6.60;99.90;;;7.12;100.00;98586.56;5040341;28;20456;-77
2022/02/22 10:30:38;;;;;;;7.40;2.53;;;6.70;99.90;;;7.14;100.00;98583.81;5040124;28;20454;-77
2022/02/22 10:33:16;;;;;;;10.67;3.60;;;6.70;99.90;;;7.16;100.00;98581.88;5041219;28;20448;-76
2022/02/22 10:35:51;;;;;;;6.93;2.23;;;6.70;99.90;;;7.23;100.00;98577.69;5040297;28;20445;-77
2022/02/22 10:38:26;;;;;;;5.80;2.83;;;6.80;99.90;;;7.25;100.00;98576.59;5039932;28;20540;-77